Decoded Metar for DAUK (TOUGGOURT in ALGERIA) (IATA:TGR) | Meteo·Mobile Aviation Weather
aviador You're here:

DAUK Decoded Metar

TOUGGOURT in ALGERIA
Report Time2019-04-20 10:00:00
UTC Time2019-04-20 11:09:10
Flight Rules Old
Wind100° at 12 kt
W.Decomp.*RWY 01: 12.0 kt RCW
Visibility2000 m
Phenomena:Low Drifting Sand
Clouds:N/A
Expected CloudBase > 7,200 ft AGL from Temp-Dew spread
CeilingNone
Temp28°C (ISA +14)
Dew Point10°C (32% RH)
Heat Index27.2°C
AAT23.7°C
QNH1005 hPa
Density Alt2,274 ft
Elevation279 ft
Report Wrong Elevation
Raw Report
METAR DAUK 201000Z 10012KT 2000 DRSA NSC 28/10 Q1005=

Extra information for DAUK:More info

Metar Taf Metar & Taf Last 4 Metars F.Rules Stats Wind Profile Meteogram Temp Stats Airport Information Weather charts Add Link Nearby VenuesMetar ALERT Operation Metar Decoded Social comments